sensor_id;sensor_type;location;lat;lon;timestamp;P1;durP1;ratioP1;P2;durP2;ratioP2
42140;SDS011;27809;51.864;5.646;2023-05-23T00:00:21;10.57;;;4.30;;
42140;SDS011;27809;51.864;5.646;2023-05-23T00:02:46;7.60;;;4.72;;
42140;SDS011;27809;51.864;5.646;2023-05-23T00:05:12;10.18;;;4.68;;
42140;SDS011;27809;51.864;5.646;2023-05-23T00:07:39;7.03;;;4.07;;
42140;SDS011;27809;51.864;5.646;2023-05-23T00:10:05;7.40;;;4.68;;
42140;SDS011;27809;51.864;5.646;2023-05-23T00:12:31;11.63;;;4.35;;
42140;SDS011;27809;51.864;5.646;2023-05-23T00:14:57;7.43;;;4.15;;
42140;SDS011;27809;51.864;5.646;2023-05-23T00:17:23;10.00;;;4.22;;
42140;SDS011;27809;51.864;5.646;2023-05-23T00:19:50;8.45;;;4.82;;
42140;SDS011;27809;51.864;5.646;2023-05-23T00:22:15;12.95;;;5.20;;
42140;SDS011;27809;51.864;5.646;2023-05-23T00:24:41;8.90;;;3.97;;
42140;SDS011;27809;51.864;5.646;2023-05-23T00:27:07;6.40;;;3.28;;
42140;SDS011;27809;51.864;5.646;2023-05-23T00:29:33;10.30;;;4.57;;
42140;SDS011;27809;51.864;5.646;2023-05-23T00:31:58;9.05;;;4.70;;
42140;SDS011;27809;51.864;5.646;2023-05-23T00:34:24;15.20;;;4.30;;
42140;SDS011;27809;51.864;5.646;2023-05-23T00:36:49;7.05;;;3.55;;
42140;SDS011;27809;51.864;5.646;2023-05-23T00:39:15;5.30;;;3.55;;
42140;SDS011;27809;51.864;5.646;2023-05-23T00:41:45;7.95;;;3.90;;
42140;SDS011;27809;51.864;5.646;2023-05-23T00:44:11;11.77;;;3.72;;
42140;SDS011;27809;51.864;5.646;2023-05-23T00:46:37;12.32;;;4.95;;
42140;SDS011;27809;51.864;5.646;2023-05-23T00:49:03;9.90;;;4.47;;
42140;SDS011;27809;51.864;5.646;2023-05-23T00:51:28;14.57;;;4.35;;
42140;SDS011;27809;51.864;5.646;2023-05-23T00:53:55;11.60;;;4.72;;
42140;SDS011;27809;51.864;5.646;2023-05-23T00:56:21;7.72;;;3.95;;
42140;SDS011;27809;51.864;5.646;2023-05-23T00:58:47;10.48;;;4.97;;
42140;SDS011;27809;51.864;5.646;2023-05-23T01:01:13;7.53;;;4.45;;
42140;SDS011;27809;51.864;5.646;2023-05-23T01:03:41;9.68;;;5.30;;
42140;SDS011;27809;51.864;5.646;2023-05-23T01:06:09;12.32;;;5.07;;
42140;SDS011;27809;51.864;5.646;2023-05-23T01:08:35;12.15;;;5.78;;
42140;SDS011;27809;51.864;5.646;2023-05-23T01:11:03;11.93;;;5.60;;
42140;SDS011;27809;51.864;5.646;2023-05-23T01:13:42;11.75;;;5.00;;
42140;SDS011;27809;51.864;5.646;2023-05-23T01:16:29;15.15;;;5.95;;
42140;SDS011;27809;51.864;5.646;2023-05-23T01:21:52;15.05;;;5.32;;
42140;SDS011;27809;51.864;5.646;2023-05-23T01:24:34;11.20;;;5.53;;
42140;SDS011;27809;51.864;5.646;2023-05-23T01:27:10;13.02;;;5.82;;
42140;SDS011;27809;51.864;5.646;2023-05-23T01:29:47;11.75;;;4.65;;
42140;SDS011;27809;51.864;5.646;2023-05-23T01:32:20;13.90;;;6.95;;
42140;SDS011;27809;51.864;5.646;2023-05-23T01:34:50;10.38;;;5.32;;
42140;SDS011;27809;51.864;5.646;2023-05-23T01:37:17;16.65;;;4.72;;
42140;SDS011;27809;51.864;5.646;2023-05-23T01:39:43;12.35;;;4.80;;
42140;SDS011;27809;51.864;5.646;2023-05-23T01:42:09;10.52;;;4.95;;
42140;SDS011;27809;51.864;5.646;2023-05-23T01:44:35;18.00;;;5.00;;
42140;SDS011;27809;51.864;5.646;2023-05-23T01:47:02;13.18;;;5.25;;
42140;SDS011;27809;51.864;5.646;2023-05-23T01:49:29;8.52;;;4.22;;
42140;SDS011;27809;51.864;5.646;2023-05-23T01:51:58;9.10;;;4.43;;
42140;SDS011;27809;51.864;5.646;2023-05-23T01:54:25;9.75;;;4.80;;
42140;SDS011;27809;51.864;5.646;2023-05-23T01:56:53;10.73;;;3.88;;
42140;SDS011;27809;51.864;5.646;2023-05-23T01:59:21;7.15;;;3.13;;
42140;SDS011;27809;51.864;5.646;2023-05-23T02:01:46;8.93;;;3.85;;
42140;SDS011;27809;51.864;5.646;2023-05-23T02:04:12;11.65;;;4.78;;
42140;SDS011;27809;51.864;5.646;2023-05-23T02:06:37;10.18;;;4.25;;
42140;SDS011;27809;51.864;5.646;2023-05-23T02:09:03;6.53;;;2.85;;
42140;SDS011;27809;51.864;5.646;2023-05-23T02:11:28;7.20;;;3.50;;
42140;SDS011;27809;51.864;5.646;2023-05-23T02:13:54;10.73;;;3.85;;
42140;SDS011;27809;51.864;5.646;2023-05-23T02:16:20;10.00;;;4.13;;
42140;SDS011;27809;51.864;5.646;2023-05-23T02:18:45;6.43;;;3.08;;
42140;SDS011;27809;51.864;5.646;2023-05-23T02:21:11;7.93;;;3.55;;
42140;SDS011;27809;51.864;5.646;2023-05-23T02:23:36;10.90;;;5.18;;
42140;SDS011;27809;51.864;5.646;2023-05-23T02:26:02;6.95;;;3.58;;
42140;SDS011;27809;51.864;5.646;2023-05-23T02:28:27;10.60;;;3.22;;
42140;SDS011;27809;51.864;5.646;2023-05-23T02:30:53;11.85;;;3.25;;
42140;SDS011;27809;51.864;5.646;2023-05-23T02:33:18;12.05;;;3.85;;
42140;SDS011;27809;51.864;5.646;2023-05-23T02:35:44;5.32;;;2.65;;
42140;SDS011;27809;51.864;5.646;2023-05-23T02:38:10;12.20;;;3.83;;
42140;SDS011;27809;51.864;5.646;2023-05-23T02:40:36;5.93;;;3.47;;
42140;SDS011;27809;51.864;5.646;2023-05-23T02:43:01;8.68;;;4.07;;
42140;SDS011;27809;51.864;5.646;2023-05-23T02:45:27;8.60;;;3.35;;
42140;SDS011;27809;51.864;5.646;2023-05-23T02:47:52;12.18;;;4.63;;
42140;SDS011;27809;51.864;5.646;2023-05-23T02:50:18;7.40;;;3.20;;
42140;SDS011;27809;51.864;5.646;2023-05-23T02:52:44;7.95;;;3.78;;
42140;SDS011;27809;51.864;5.646;2023-05-23T02:55:10;5.53;;;3.22;;
42140;SDS011;27809;51.864;5.646;2023-05-23T02:57:35;13.75;;;4.70;;
42140;SDS011;27809;51.864;5.646;2023-05-23T03:00:01;9.45;;;4.20;;
42140;SDS011;27809;51.864;5.646;2023-05-23T03:02:26;9.98;;;3.85;;
42140;SDS011;27809;51.864;5.646;2023-05-23T03:04:52;10.57;;;3.40;;
42140;SDS011;27809;51.864;5.646;2023-05-23T03:07:17;9.88;;;3.80;;
42140;SDS011;27809;51.864;5.646;2023-05-23T03:09:43;7.65;;;4.95;;
42140;SDS011;27809;51.864;5.646;2023-05-23T03:12:08;10.85;;;4.63;;
42140;SDS011;27809;51.864;5.646;2023-05-23T03:14:34;12.68;;;4.22;;
42140;SDS011;27809;51.864;5.646;2023-05-23T03:17:00;9.23;;;3.60;;
42140;SDS011;27809;51.864;5.646;2023-05-23T03:19:27;11.02;;;3.63;;
42140;SDS011;27809;51.864;5.646;2023-05-23T03:21:53;6.88;;;3.72;;
42140;SDS011;27809;51.864;5.646;2023-05-23T03:24:18;9.55;;;3.67;;
42140;SDS011;27809;51.864;5.646;2023-05-23T03:26:44;8.32;;;3.17;;
42140;SDS011;27809;51.864;5.646;2023-05-23T03:29:10;8.48;;;3.70;;
42140;SDS011;27809;51.864;5.646;2023-05-23T03:31:36;8.52;;;3.80;;
42140;SDS011;27809;51.864;5.646;2023-05-23T03:34:01;15.75;;;3.55;;
42140;SDS011;27809;51.864;5.646;2023-05-23T03:36:29;12.88;;;4.95;;
42140;SDS011;27809;51.864;5.646;2023-05-23T03:38:57;9.98;;;3.60;;
42140;SDS011;27809;51.864;5.646;2023-05-23T03:41:22;10.55;;;4.75;;
42140;SDS011;27809;51.864;5.646;2023-05-23T03:43:48;8.20;;;3.58;;
42140;SDS011;27809;51.864;5.646;2023-05-23T03:46:14;14.80;;;3.75;;
42140;SDS011;27809;51.864;5.646;2023-05-23T03:48:39;15.77;;;4.55;;
42140;SDS011;27809;51.864;5.646;2023-05-23T03:51:05;10.70;;;5.18;;
42140;SDS011;27809;51.864;5.646;2023-05-23T03:53:30;13.65;;;5.38;;
42140;SDS011;27809;51.864;5.646;2023-05-23T03:55:56;8.77;;;3.90;;
42140;SDS011;27809;51.864;5.646;2023-05-23T03:58:22;12.00;;;5.65;;
42140;SDS011;27809;51.864;5.646;2023-05-23T04:00:47;14.18;;;4.25;;
42140;SDS011;27809;51.864;5.646;2023-05-23T04:03:13;22.20;;;4.85;;
42140;SDS011;27809;51.864;5.646;2023-05-23T04:05:41;14.85;;;3.70;;
42140;SDS011;27809;51.864;5.646;2023-05-23T04:08:07;7.75;;;4.63;;
42140;SDS011;27809;51.864;5.646;2023-05-23T04:10:33;17.85;;;4.15;;
42140;SDS011;27809;51.864;5.646;2023-05-23T04:12:59;52.63;;;5.50;;
42140;SDS011;27809;51.864;5.646;2023-05-23T04:15:24;14.98;;;5.07;;
42140;SDS011;27809;51.864;5.646;2023-05-23T04:17:51;14.43;;;4.32;;
42140;SDS011;27809;51.864;5.646;2023-05-23T04:20:17;14.18;;;5.00;;
42140;SDS011;27809;51.864;5.646;2023-05-23T04:22:43;12.15;;;4.28;;
42140;SDS011;27809;51.864;5.646;2023-05-23T04:25:08;12.98;;;4.35;;
42140;SDS011;27809;51.864;5.646;2023-05-23T04:27:34;9.77;;;4.85;;
42140;SDS011;27809;51.864;5.646;2023-05-23T04:29:59;25.60;;;5.50;;
42140;SDS011;27809;51.864;5.646;2023-05-23T04:32:25;18.88;;;5.63;;
42140;SDS011;27809;51.864;5.646;2023-05-23T04:34:51;18.67;;;6.60;;
42140;SDS011;27809;51.864;5.646;2023-05-23T04:37:17;9.57;;;4.82;;
42140;SDS011;27809;51.864;5.646;2023-05-23T04:39:49;18.58;;;6.70;;
42140;SDS011;27809;51.864;5.646;2023-05-23T04:42:16;21.77;;;6.70;;
42140;SDS011;27809;51.864;5.646;2023-05-23T04:44:41;13.85;;;6.07;;
42140;SDS011;27809;51.864;5.646;2023-05-23T04:47:07;20.40;;;7.85;;
42140;SDS011;27809;51.864;5.646;2023-05-23T04:49:34;24.90;;;4.93;;
42140;SDS011;27809;51.864;5.646;2023-05-23T04:52:00;20.13;;;6.57;;
42140;SDS011;27809;51.864;5.646;2023-05-23T04:54:26;20.08;;;5.50;;
42140;SDS011;27809;51.864;5.646;2023-05-23T04:56:51;18.52;;;6.15;;
42140;SDS011;27809;51.864;5.646;2023-05-23T04:59:17;15.68;;;7.53;;
42140;SDS011;27809;51.864;5.646;2023-05-23T05:01:42;13.25;;;5.60;;
42140;SDS011;27809;51.864;5.646;2023-05-23T05:04:08;22.63;;;5.68;;
42140;SDS011;27809;51.864;5.646;2023-05-23T05:06:33;11.95;;;4.80;;
42140;SDS011;27809;51.864;5.646;2023-05-23T05:08:59;12.90;;;4.22;;
42140;SDS011;27809;51.864;5.646;2023-05-23T05:11:25;14.25;;;5.15;;
42140;SDS011;27809;51.864;5.646;2023-05-23T05:13:51;18.73;;;6.63;;
42140;SDS011;27809;51.864;5.646;2023-05-23T05:16:16;16.27;;;6.57;;
42140;SDS011;27809;51.864;5.646;2023-05-23T05:18:42;14.18;;;4.38;;
42140;SDS011;27809;51.864;5.646;2023-05-23T05:21:07;15.02;;;4.90;;
42140;SDS011;27809;51.864;5.646;2023-05-23T05:23:34;14.55;;;3.60;;
42140;SDS011;27809;51.864;5.646;2023-05-23T05:26:00;18.80;;;4.90;;
42140;SDS011;27809;51.864;5.646;2023-05-23T05:28:25;10.90;;;3.50;;
42140;SDS011;27809;51.864;5.646;2023-05-23T05:30:51;14.95;;;4.53;;
42140;SDS011;27809;51.864;5.646;2023-05-23T05:33:20;13.75;;;4.43;;
42140;SDS011;27809;51.864;5.646;2023-05-23T05:35:49;9.00;;;3.83;;
42140;SDS011;27809;51.864;5.646;2023-05-23T05:38:17;7.47;;;2.22;;
42140;SDS011;27809;51.864;5.646;2023-05-23T05:40:43;12.90;;;4.40;;
42140;SDS011;27809;51.864;5.646;2023-05-23T05:43:08;10.82;;;3.33;;
42140;SDS011;27809;51.864;5.646;2023-05-23T05:45:34;10.15;;;3.40;;
42140;SDS011;27809;51.864;5.646;2023-05-23T05:48:00;11.50;;;3.38;;
42140;SDS011;27809;51.864;5.646;2023-05-23T05:50:26;8.80;;;2.75;;
42140;SDS011;27809;51.864;5.646;2023-05-23T05:52:51;6.28;;;2.80;;
42140;SDS011;27809;51.864;5.646;2023-05-23T05:55:17;13.43;;;3.60;;
42140;SDS011;27809;51.864;5.646;2023-05-23T05:57:42;23.13;;;2.45;;
42140;SDS011;27809;51.864;5.646;2023-05-23T06:00:09;10.35;;;2.90;;
42140;SDS011;27809;51.864;5.646;2023-05-23T06:02:39;12.82;;;3.08;;
42140;SDS011;27809;51.864;5.646;2023-05-23T06:05:07;16.98;;;4.47;;
42140;SDS011;27809;51.864;5.646;2023-05-23T06:07:36;8.85;;;3.58;;
42140;SDS011;27809;51.864;5.646;2023-05-23T06:10:02;16.52;;;3.17;;
42140;SDS011;27809;51.864;5.646;2023-05-23T06:12:28;11.48;;;2.38;;
42140;SDS011;27809;51.864;5.646;2023-05-23T06:14:53;11.80;;;3.00;;
42140;SDS011;27809;51.864;5.646;2023-05-23T06:17:19;10.32;;;3.35;;
42140;SDS011;27809;51.864;5.646;2023-05-23T06:19:44;9.02;;;3.90;;
42140;SDS011;27809;51.864;5.646;2023-05-23T06:22:10;9.68;;;2.13;;
42140;SDS011;27809;51.864;5.646;2023-05-23T06:24:35;13.07;;;3.33;;
42140;SDS011;27809;51.864;5.646;2023-05-23T06:27:00;10.98;;;3.17;;
42140;SDS011;27809;51.864;5.646;2023-05-23T06:29:26;11.32;;;3.28;;
42140;SDS011;27809;51.864;5.646;2023-05-23T06:31:51;10.88;;;2.50;;
42140;SDS011;27809;51.864;5.646;2023-05-23T06:34:17;15.70;;;2.88;;
42140;SDS011;27809;51.864;5.646;2023-05-23T06:36:42;4.28;;;1.50;;
42140;SDS011;27809;51.864;5.646;2023-05-23T06:39:10;15.82;;;2.50;;
42140;SDS011;27809;51.864;5.646;2023-05-23T06:41:37;9.10;;;2.53;;
42140;SDS011;27809;51.864;5.646;2023-05-23T06:44:03;10.40;;;2.70;;
42140;SDS011;27809;51.864;5.646;2023-05-23T06:46:29;7.20;;;2.13;;
42140;SDS011;27809;51.864;5.646;2023-05-23T06:48:55;9.68;;;1.83;;
42140;SDS011;27809;51.864;5.646;2023-05-23T06:51:21;7.45;;;1.85;;
42140;SDS011;27809;51.864;5.646;2023-05-23T06:53:46;4.70;;;1.50;;
42140;SDS011;27809;51.864;5.646;2023-05-23T06:56:12;9.30;;;2.55;;
42140;SDS011;27809;51.864;5.646;2023-05-23T06:58:37;8.50;;;2.70;;
42140;SDS011;27809;51.864;5.646;2023-05-23T07:01:03;16.35;;;2.97;;
42140;SDS011;27809;51.864;5.646;2023-05-23T07:03:29;11.40;;;3.78;;
42140;SDS011;27809;51.864;5.646;2023-05-23T07:05:55;10.77;;;4.22;;
42140;SDS011;27809;51.864;5.646;2023-05-23T07:08:20;10.27;;;3.13;;
42140;SDS011;27809;51.864;5.646;2023-05-23T07:10:46;15.45;;;3.10;;
42140;SDS011;27809;51.864;5.646;2023-05-23T07:13:11;13.40;;;1.83;;
42140;SDS011;27809;51.864;5.646;2023-05-23T07:15:37;8.90;;;3.65;;
42140;SDS011;27809;51.864;5.646;2023-05-23T07:18:02;7.10;;;2.58;;
42140;SDS011;27809;51.864;5.646;2023-05-23T07:20:28;13.57;;;3.25;;
42140;SDS011;27809;51.864;5.646;2023-05-23T07:22:54;7.50;;;2.70;;
42140;SDS011;27809;51.864;5.646;2023-05-23T07:25:19;13.00;;;3.00;;
42140;SDS011;27809;51.864;5.646;2023-05-23T07:27:47;8.02;;;2.78;;
42140;SDS011;27809;51.864;5.646;2023-05-23T07:30:12;7.60;;;2.60;;
42140;SDS011;27809;51.864;5.646;2023-05-23T07:32:38;14.00;;;3.00;;
42140;SDS011;27809;51.864;5.646;2023-05-23T07:35:04;5.65;;;1.42;;
42140;SDS011;27809;51.864;5.646;2023-05-23T07:37:30;5.75;;;3.20;;
42140;SDS011;27809;51.864;5.646;2023-05-23T07:39:55;5.80;;;1.98;;
42140;SDS011;27809;51.864;5.646;2023-05-23T07:42:21;6.53;;;3.20;;
42140;SDS011;27809;51.864;5.646;2023-05-23T07:44:46;8.43;;;3.50;;
42140;SDS011;27809;51.864;5.646;2023-05-23T07:47:12;4.18;;;1.67;;
42140;SDS011;27809;51.864;5.646;2023-05-23T07:49:37;5.35;;;1.10;;
42140;SDS011;27809;51.864;5.646;2023-05-23T07:52:03;8.48;;;2.72;;
42140;SDS011;27809;51.864;5.646;2023-05-23T07:54:29;6.13;;;1.75;;
42140;SDS011;27809;51.864;5.646;2023-05-23T07:56:54;8.65;;;2.75;;
42140;SDS011;27809;51.864;5.646;2023-05-23T07:59:20;15.15;;;1.70;;
42140;SDS011;27809;51.864;5.646;2023-05-23T08:01:46;5.70;;;1.52;;
42140;SDS011;27809;51.864;5.646;2023-05-23T08:04:14;5.18;;;1.85;;
42140;SDS011;27809;51.864;5.646;2023-05-23T08:06:40;3.95;;;0.80;;
42140;SDS011;27809;51.864;5.646;2023-05-23T08:09:06;6.28;;;1.45;;
42140;SDS011;27809;51.864;5.646;2023-05-23T08:11:31;11.50;;;2.20;;
42140;SDS011;27809;51.864;5.646;2023-05-23T08:13:57;10.77;;;1.23;;
42140;SDS011;27809;51.864;5.646;2023-05-23T08:16:24;4.55;;;1.40;;
42140;SDS011;27809;51.864;5.646;2023-05-23T08:18:50;25.60;;;3.58;;
42140;SDS011;27809;51.864;5.646;2023-05-23T08:21:15;11.63;;;1.88;;
42140;SDS011;27809;51.864;5.646;2023-05-23T08:23:41;11.50;;;1.52;;
42140;SDS011;27809;51.864;5.646;2023-05-23T08:26:07;3.58;;;0.77;;
42140;SDS011;27809;51.864;5.646;2023-05-23T08:28:32;7.75;;;0.95;;
42140;SDS011;27809;51.864;5.646;2023-05-23T08:30:58;9.13;;;0.80;;
42140;SDS011;27809;51.864;5.646;2023-05-23T08:33:24;6.97;;;1.30;;
42140;SDS011;27809;51.864;5.646;2023-05-23T08:35:50;6.03;;;0.85;;
42140;SDS011;27809;51.864;5.646;2023-05-23T08:38:16;9.68;;;2.08;;
42140;SDS011;27809;51.864;5.646;2023-05-23T08:40:42;8.27;;;1.83;;
42140;SDS011;27809;51.864;5.646;2023-05-23T08:43:16;10.48;;;2.30;;
42140;SDS011;27809;51.864;5.646;2023-05-23T08:45:43;14.38;;;2.67;;
42140;SDS011;27809;51.864;5.646;2023-05-23T08:48:09;3.83;;;1.13;;
42140;SDS011;27809;51.864;5.646;2023-05-23T08:50:38;6.15;;;0.93;;
42140;SDS011;27809;51.864;5.646;2023-05-23T08:53:04;6.38;;;0.95;;
42140;SDS011;27809;51.864;5.646;2023-05-23T08:55:33;13.70;;;2.33;;
42140;SDS011;27809;51.864;5.646;2023-05-23T08:57:58;6.40;;;1.58;;
42140;SDS011;27809;51.864;5.646;2023-05-23T09:00:24;17.33;;;1.75;;
42140;SDS011;27809;51.864;5.646;2023-05-23T09:02:51;10.88;;;2.10;;
42140;SDS011;27809;51.864;5.646;2023-05-23T09:05:18;12.73;;;2.55;;
42140;SDS011;27809;51.864;5.646;2023-05-23T09:07:45;11.05;;;2.60;;
42140;SDS011;27809;51.864;5.646;2023-05-23T09:10:15;8.35;;;0.70;;
42140;SDS011;27809;51.864;5.646;2023-05-23T09:12:44;11.02;;;2.58;;
42140;SDS011;27809;51.864;5.646;2023-05-23T09:15:10;4.65;;;1.27;;
42140;SDS011;27809;51.864;5.646;2023-05-23T09:17:36;14.88;;;2.83;;
42140;SDS011;27809;51.864;5.646;2023-05-23T09:20:11;15.38;;;1.40;;
42140;SDS011;27809;51.864;5.646;2023-05-23T09:22:39;11.18;;;1.45;;
42140;SDS011;27809;51.864;5.646;2023-05-23T09:25:05;15.50;;;2.45;;
42140;SDS011;27809;51.864;5.646;2023-05-23T09:27:31;6.95;;;1.30;;
42140;SDS011;27809;51.864;5.646;2023-05-23T09:29:57;6.53;;;1.48;;
42140;SDS011;27809;51.864;5.646;2023-05-23T09:32:33;17.67;;;1.85;;
42140;SDS011;27809;51.864;5.646;2023-05-23T09:34:59;6.45;;;1.27;;
42140;SDS011;27809;51.864;5.646;2023-05-23T09:40:08;9.75;;;1.52;;
42140;SDS011;27809;51.864;5.646;2023-05-23T09:42:35;7.97;;;1.45;;
42140;SDS011;27809;51.864;5.646;2023-05-23T09:45:05;10.13;;;1.23;;
42140;SDS011;27809;51.864;5.646;2023-05-23T09:47:31;6.53;;;1.00;;
42140;SDS011;27809;51.864;5.646;2023-05-23T09:49:56;11.02;;;2.28;;
42140;SDS011;27809;51.864;5.646;2023-05-23T09:52:22;8.73;;;1.20;;
42140;SDS011;27809;51.864;5.646;2023-05-23T09:54:48;11.02;;;2.00;;
42140;SDS011;27809;51.864;5.646;2023-05-23T09:57:14;6.68;;;1.05;;
42140;SDS011;27809;51.864;5.646;2023-05-23T09:59:44;18.63;;;2.25;;
42140;SDS011;27809;51.864;5.646;2023-05-23T10:02:15;11.43;;;1.58;;
42140;SDS011;27809;51.864;5.646;2023-05-23T10:04:47;9.85;;;2.13;;
42140;SDS011;27809;51.864;5.646;2023-05-23T10:07:18;9.45;;;2.35;;
42140;SDS011;27809;51.864;5.646;2023-05-23T10:09:50;10.68;;;1.48;;
42140;SDS011;27809;51.864;5.646;2023-05-23T10:15:04;11.43;;;2.15;;
42140;SDS011;27809;51.864;5.646;2023-05-23T10:20:29;11.50;;;1.13;;
42140;SDS011;27809;51.864;5.646;2023-05-23T10:22:57;11.32;;;2.40;;
42140;SDS011;27809;51.864;5.646;2023-05-23T10:25:27;9.05;;;1.25;;
42140;SDS011;27809;51.864;5.646;2023-05-23T10:27:54;8.50;;;1.30;;
42140;SDS011;27809;51.864;5.646;2023-05-23T10:30:26;9.13;;;1.15;;
42140;SDS011;27809;51.864;5.646;2023-05-23T10:32:52;9.55;;;2.45;;
42140;SDS011;27809;51.864;5.646;2023-05-23T10:35:31;10.05;;;1.98;;
42140;SDS011;27809;51.864;5.646;2023-05-23T10:46:12;9.10;;;2.08;;
42140;SDS011;27809;51.864;5.646;2023-05-23T10:48:41;7.75;;;0.88;;
42140;SDS011;27809;51.864;5.646;2023-05-23T10:51:09;11.15;;;2.05;;
42140;SDS011;27809;51.864;5.646;2023-05-23T10:53:37;8.52;;;1.52;;
42140;SDS011;27809;51.864;5.646;2023-05-23T10:56:04;9.88;;;1.95;;
42140;SDS011;27809;51.864;5.646;2023-05-23T10:58:31;12.20;;;1.88;;
42140;SDS011;27809;51.864;5.646;2023-05-23T11:01:01;7.75;;;1.17;;
42140;SDS011;27809;51.864;5.646;2023-05-23T11:03:34;12.23;;;2.58;;
42140;SDS011;27809;51.864;5.646;2023-05-23T11:06:01;8.70;;;1.00;;
42140;SDS011;27809;51.864;5.646;2023-05-23T11:08:35;9.40;;;0.95;;
42140;SDS011;27809;51.864;5.646;2023-05-23T11:11:06;8.73;;;1.58;;
42140;SDS011;27809;51.864;5.646;2023-05-23T11:18:50;5.93;;;1.65;;
42140;SDS011;27809;51.864;5.646;2023-05-23T11:21:15;3.72;;;0.70;;
42140;SDS011;27809;51.864;5.646;2023-05-23T11:23:41;4.90;;;1.35;;
42140;SDS011;27809;51.864;5.646;2023-05-23T11:28:55;6.30;;;1.27;;
42140;SDS011;27809;51.864;5.646;2023-05-23T11:31:22;10.48;;;1.73;;
42140;SDS011;27809;51.864;5.646;2023-05-23T11:33:51;6.03;;;0.60;;
42140;SDS011;27809;51.864;5.646;2023-05-23T11:36:16;9.55;;;1.02;;
42140;SDS011;27809;51.864;5.646;2023-05-23T11:38:42;4.75;;;0.75;;
42140;SDS011;27809;51.864;5.646;2023-05-23T11:41:07;7.13;;;1.20;;
42140;SDS011;27809;51.864;5.646;2023-05-23T11:43:33;10.27;;;1.00;;
42140;SDS011;27809;51.864;5.646;2023-05-23T11:46:06;7.15;;;1.40;;
42140;SDS011;27809;51.864;5.646;2023-05-23T11:48:35;7.25;;;1.30;;
42140;SDS011;27809;51.864;5.646;2023-05-23T11:51:00;5.35;;;1.13;;
42140;SDS011;27809;51.864;5.646;2023-05-23T11:53:26;8.90;;;0.90;;
42140;SDS011;27809;51.864;5.646;2023-05-23T11:58:19;5.35;;;0.85;;
42140;SDS011;27809;51.864;5.646;2023-05-23T12:00:46;7.53;;;1.25;;
42140;SDS011;27809;51.864;5.646;2023-05-23T12:03:12;10.02;;;0.98;;
42140;SDS011;27809;51.864;5.646;2023-05-23T12:05:37;8.57;;;1.00;;
42140;SDS011;27809;51.864;5.646;2023-05-23T12:08:03;16.83;;;2.25;;
42140;SDS011;27809;51.864;5.646;2023-05-23T12:10:28;5.15;;;0.95;;
42140;SDS011;27809;51.864;5.646;2023-05-23T12:12:54;8.98;;;1.40;;
42140;SDS011;27809;51.864;5.646;2023-05-23T12:15:24;23.92;;;4.10;;
42140;SDS011;27809;51.864;5.646;2023-05-23T12:17:54;7.88;;;1.35;;
42140;SDS011;27809;51.864;5.646;2023-05-23T12:20:20;10.27;;;1.00;;
42140;SDS011;27809;51.864;5.646;2023-05-23T12:22:46;9.15;;;1.27;;
42140;SDS011;27809;51.864;5.646;2023-05-23T12:25:12;6.53;;;1.02;;
42140;SDS011;27809;51.864;5.646;2023-05-23T12:27:38;10.07;;;2.75;;
42140;SDS011;27809;51.864;5.646;2023-05-23T12:30:23;7.57;;;1.00;;
42140;SDS011;27809;51.864;5.646;2023-05-23T12:32:49;6.70;;;1.35;;
42140;SDS011;27809;51.864;5.646;2023-05-23T12:35:14;5.45;;;0.80;;
42140;SDS011;27809;51.864;5.646;2023-05-23T12:40:17;5.60;;;1.23;;
42140;SDS011;27809;51.864;5.646;2023-05-23T12:42:49;4.90;;;0.50;;
42140;SDS011;27809;51.864;5.646;2023-05-23T12:45:16;7.85;;;0.65;;
42140;SDS011;27809;51.864;5.646;2023-05-23T12:47:42;11.75;;;0.82;;
42140;SDS011;27809;51.864;5.646;2023-05-23T12:50:08;3.53;;;1.15;;
42140;SDS011;27809;51.864;5.646;2023-05-23T12:52:35;9.85;;;2.15;;
42140;SDS011;27809;51.864;5.646;2023-05-23T12:55:01;10.25;;;1.13;;
42140;SDS011;27809;51.864;5.646;2023-05-23T12:57:27;6.88;;;0.80;;
42140;SDS011;27809;51.864;5.646;2023-05-23T12:59:52;4.88;;;1.48;;
42140;SDS011;27809;51.864;5.646;2023-05-23T13:02:18;4.45;;;0.98;;
42140;SDS011;27809;51.864;5.646;2023-05-23T13:04:43;8.60;;;0.80;;
42140;SDS011;27809;51.864;5.646;2023-05-23T13:07:09;4.30;;;0.75;;
42140;SDS011;27809;51.864;5.646;2023-05-23T13:09:34;8.13;;;0.82;;
42140;SDS011;27809;51.864;5.646;2023-05-23T13:12:00;6.55;;;1.13;;
42140;SDS011;27809;51.864;5.646;2023-05-23T13:14:25;8.32;;;1.17;;
42140;SDS011;27809;51.864;5.646;2023-05-23T13:16:51;7.13;;;1.92;;
42140;SDS011;27809;51.864;5.646;2023-05-23T13:19:16;5.38;;;0.88;;
42140;SDS011;27809;51.864;5.646;2023-05-23T13:21:42;6.32;;;0.80;;
42140;SDS011;27809;51.864;5.646;2023-05-23T13:24:07;4.38;;;0.75;;
42140;SDS011;27809;51.864;5.646;2023-05-23T13:26:33;2.75;;;0.82;;
42140;SDS011;27809;51.864;5.646;2023-05-23T13:28:59;6.88;;;1.13;;
42140;SDS011;27809;51.864;5.646;2023-05-23T13:31:24;6.80;;;0.90;;
42140;SDS011;27809;51.864;5.646;2023-05-23T13:33:51;7.57;;;1.27;;
42140;SDS011;27809;51.864;5.646;2023-05-23T13:36:16;1.67;;;0.57;;
42140;SDS011;27809;51.864;5.646;2023-05-23T13:38:42;7.20;;;0.80;;
42140;SDS011;27809;51.864;5.646;2023-05-23T13:41:07;5.68;;;0.95;;
42140;SDS011;27809;51.864;5.646;2023-05-23T13:43:33;7.45;;;1.25;;
42140;SDS011;27809;51.864;5.646;2023-05-23T13:45:58;9.75;;;0.70;;
42140;SDS011;27809;51.864;5.646;2023-05-23T13:48:25;12.50;;;1.92;;
42140;SDS011;27809;51.864;5.646;2023-05-23T13:50:51;13.30;;;1.42;;
42140;SDS011;27809;51.864;5.646;2023-05-23T13:53:16;4.68;;;0.82;;
42140;SDS011;27809;51.864;5.646;2023-05-23T13:55:42;5.25;;;1.13;;
42140;SDS011;27809;51.864;5.646;2023-05-23T13:58:09;5.72;;;1.00;;
42140;SDS011;27809;51.864;5.646;2023-05-23T14:00:35;7.38;;;0.95;;
42140;SDS011;27809;51.864;5.646;2023-05-23T14:03:01;6.97;;;1.38;;
42140;SDS011;27809;51.864;5.646;2023-05-23T14:05:27;4.05;;;0.60;;
42140;SDS011;27809;51.864;5.646;2023-05-23T14:07:52;2.67;;;0.40;;
42140;SDS011;27809;51.864;5.646;2023-05-23T14:10:18;4.63;;;0.57;;
42140;SDS011;27809;51.864;5.646;2023-05-23T14:12:43;6.13;;;1.45;;
42140;SDS011;27809;51.864;5.646;2023-05-23T14:15:09;4.40;;;0.70;;
42140;SDS011;27809;51.864;5.646;2023-05-23T14:17:35;4.85;;;0.60;;
42140;SDS011;27809;51.864;5.646;2023-05-23T14:20:01;4.88;;;0.47;;
42140;SDS011;27809;51.864;5.646;2023-05-23T14:22:27;4.75;;;0.75;;
42140;SDS011;27809;51.864;5.646;2023-05-23T14:24:53;7.82;;;1.33;;
42140;SDS011;27809;51.864;5.646;2023-05-23T14:27:18;2.58;;;0.50;;
42140;SDS011;27809;51.864;5.646;2023-05-23T14:29:44;5.07;;;0.98;;
42140;SDS011;27809;51.864;5.646;2023-05-23T14:32:11;2.28;;;0.60;;
42140;SDS011;27809;51.864;5.646;2023-05-23T14:34:37;10.57;;;2.38;;
42140;SDS011;27809;51.864;5.646;2023-05-23T14:37:02;4.07;;;0.75;;
42140;SDS011;27809;51.864;5.646;2023-05-23T14:39:28;4.93;;;0.50;;
42140;SDS011;27809;51.864;5.646;2023-05-23T14:41:54;2.70;;;0.73;;
42140;SDS011;27809;51.864;5.646;2023-05-23T14:44:19;11.35;;;1.73;;
42140;SDS011;27809;51.864;5.646;2023-05-23T14:46:45;4.47;;;0.73;;
42140;SDS011;27809;51.864;5.646;2023-05-23T14:49:17;6.57;;;0.55;;
42140;SDS011;27809;51.864;5.646;2023-05-23T14:51:43;7.25;;;1.33;;
42140;SDS011;27809;51.864;5.646;2023-05-23T14:54:09;6.45;;;1.45;;
42140;SDS011;27809;51.864;5.646;2023-05-23T14:56:34;7.30;;;1.15;;
42140;SDS011;27809;51.864;5.646;2023-05-23T14:59:01;6.97;;;1.35;;
42140;SDS011;27809;51.864;5.646;2023-05-23T15:01:30;4.78;;;0.75;;
42140;SDS011;27809;51.864;5.646;2023-05-23T15:03:55;5.85;;;0.80;;
42140;SDS011;27809;51.864;5.646;2023-05-23T15:06:21;9.38;;;2.05;;
42140;SDS011;27809;51.864;5.646;2023-05-23T15:08:46;3.85;;;1.15;;